Aérodrome :
LOGIN :

S'inscrire | Disclaimer

   EN    FR    IT 

 










Légende :    VFR   VFR Marginal   IFR   IFR Intensif   IFR Très Intensif
Visi : 
Plafond : 
>= 8 km
>= 3000ft
5 à 8 km
1000 à 3000 ft
1500m à 5 km
500 à 1000 ft
800 à 1500m
200 à 500 ft
< 800m
< 200 ft
Symboles :   Orages  Brouillard  Fortes neiges  Fortes précipitations  Vent > 20 kt
SIGMETs :   Divers  Orages  Givrage  Turbulence  Onde Orograph.  Cendres Volcan.







- Altitude de l'aérodrome : 49 ft
- Code IATA : SEN
- Voir les cartes d'approche


EGMC - Southend

DERNIER METAR :
  • 281150Z 34007KT 310V010 9999 SCT039 BKN048 11/01 Q1016

METARs EXPIRÉS :
  • 281120Z 34009KT 250V360 9999 BKN033 BKN048 11/02 Q1016
  • 281050Z 30007KT 250V360 9999 BKN033 11/01 Q1016
  • 281020Z 33008KT 300V010 9999 BKN034 11/03 Q1017
  • 280950Z 33008KT 280V350 9999 SCT035 10/02 Q1016
  • 280920Z 32007KT 280V350 9999 FEW033 10/02 Q1016

TAF TAF EGMC
Valide du 28 à 12h jusqu'au 28 à 21h UTC


281104Z 2812/2821 33009KT 9999 SCT035
Pas de NOTAMs connus pour ce terrain.



MET'MAP, la Météo Aéronautique d'un coup d'oeil ! - Copyright ORBIFLY Décembre 2007 - Disclaimer

ORBIFLY MET'MAP TEAM :

Programmation & Développement : Alexandra Zaïnal
Conception & Développement : Baudouin d'Aumeries
Co-Programmation & Développement : Marc-Olivier Méhu
Soutien technique & logistique : Manuel Goepfert

Contact : metmap@orbifly.com




SOURCES & CREDITS :

   NOAA